sensor_id;sensor_type;location;lat;lon;timestamp;P1;durP1;ratioP1;P2;durP2;ratioP2
48859;SDS011;34679;51.436;-2.518;2023-04-15T00:00:29;6.47;;;3.90;;
48859;SDS011;34679;51.436;-2.518;2023-04-15T00:02:55;5.85;;;4.00;;
48859;SDS011;34679;51.436;-2.518;2023-04-15T00:05:20;6.53;;;3.55;;
48859;SDS011;34679;51.436;-2.518;2023-04-15T00:07:46;6.53;;;4.10;;
48859;SDS011;34679;51.436;-2.518;2023-04-15T00:10:12;4.28;;;3.88;;
48859;SDS011;34679;51.436;-2.518;2023-04-15T00:12:40;4.20;;;3.90;;
48859;SDS011;34679;51.436;-2.518;2023-04-15T00:15:07;5.13;;;3.90;;
48859;SDS011;34679;51.436;-2.518;2023-04-15T00:17:33;5.03;;;3.95;;
48859;SDS011;34679;51.436;-2.518;2023-04-15T00:20:00;4.40;;;4.00;;
48859;SDS011;34679;51.436;-2.518;2023-04-15T00:22:26;5.07;;;4.10;;
48859;SDS011;34679;51.436;-2.518;2023-04-15T00:24:52;4.47;;;3.85;;
48859;SDS011;34679;51.436;-2.518;2023-04-15T00:27:18;5.35;;;3.92;;
48859;SDS011;34679;51.436;-2.518;2023-04-15T00:29:44;7.40;;;4.53;;
48859;SDS011;34679;51.436;-2.518;2023-04-15T00:32:10;8.02;;;6.20;;
48859;SDS011;34679;51.436;-2.518;2023-04-15T00:34:35;7.88;;;6.10;;
48859;SDS011;34679;51.436;-2.518;2023-04-15T00:37:01;6.00;;;5.50;;
48859;SDS011;34679;51.436;-2.518;2023-04-15T00:39:27;10.35;;;7.63;;
48859;SDS011;34679;51.436;-2.518;2023-04-15T00:41:52;8.43;;;7.40;;
48859;SDS011;34679;51.436;-2.518;2023-04-15T00:44:19;7.40;;;6.55;;
48859;SDS011;34679;51.436;-2.518;2023-04-15T00:46:45;11.55;;;6.68;;
48859;SDS011;34679;51.436;-2.518;2023-04-15T00:49:12;6.32;;;5.75;;
48859;SDS011;34679;51.436;-2.518;2023-04-15T00:51:38;6.20;;;5.60;;
48859;SDS011;34679;51.436;-2.518;2023-04-15T00:54:05;7.13;;;4.97;;
48859;SDS011;34679;51.436;-2.518;2023-04-15T00:56:34;6.05;;;5.22;;
48859;SDS011;34679;51.436;-2.518;2023-04-15T00:59:02;7.90;;;4.53;;
48859;SDS011;34679;51.436;-2.518;2023-04-15T01:01:29;7.20;;;4.95;;
48859;SDS011;34679;51.436;-2.518;2023-04-15T01:03:55;9.38;;;5.18;;
48859;SDS011;34679;51.436;-2.518;2023-04-15T01:06:22;7.38;;;3.67;;
48859;SDS011;34679;51.436;-2.518;2023-04-15T01:08:48;4.63;;;3.08;;
48859;SDS011;34679;51.436;-2.518;2023-04-15T01:11:14;6.47;;;3.20;;
48859;SDS011;34679;51.436;-2.518;2023-04-15T01:13:41;7.13;;;3.17;;
48859;SDS011;34679;51.436;-2.518;2023-04-15T01:16:07;4.45;;;2.80;;
48859;SDS011;34679;51.436;-2.518;2023-04-15T01:18:33;5.38;;;3.00;;
48859;SDS011;34679;51.436;-2.518;2023-04-15T01:21:01;6.40;;;3.55;;
48859;SDS011;34679;51.436;-2.518;2023-04-15T01:23:29;5.55;;;3.47;;
48859;SDS011;34679;51.436;-2.518;2023-04-15T01:25:55;5.80;;;3.53;;
48859;SDS011;34679;51.436;-2.518;2023-04-15T01:28:21;6.13;;;3.47;;
48859;SDS011;34679;51.436;-2.518;2023-04-15T01:30:47;6.45;;;3.53;;
48859;SDS011;34679;51.436;-2.518;2023-04-15T01:33:13;5.90;;;3.75;;
48859;SDS011;34679;51.436;-2.518;2023-04-15T01:35:39;7.55;;;3.53;;
48859;SDS011;34679;51.436;-2.518;2023-04-15T01:38:06;6.97;;;3.50;;
48859;SDS011;34679;51.436;-2.518;2023-04-15T01:40:33;6.10;;;3.20;;
48859;SDS011;34679;51.436;-2.518;2023-04-15T01:43:00;7.35;;;3.30;;
48859;SDS011;34679;51.436;-2.518;2023-04-15T01:45:26;10.90;;;3.40;;
48859;SDS011;34679;51.436;-2.518;2023-04-15T01:47:52;8.90;;;3.72;;
48859;SDS011;34679;51.436;-2.518;2023-04-15T01:50:18;4.47;;;2.75;;
48859;SDS011;34679;51.436;-2.518;2023-04-15T01:52:44;12.25;;;2.90;;
48859;SDS011;34679;51.436;-2.518;2023-04-15T01:55:11;2.92;;;2.58;;
48859;SDS011;34679;51.436;-2.518;2023-04-15T01:57:38;12.07;;;3.25;;
48859;SDS011;34679;51.436;-2.518;2023-04-15T02:00:04;7.35;;;3.05;;
48859;SDS011;34679;51.436;-2.518;2023-04-15T02:02:31;4.22;;;3.15;;
48859;SDS011;34679;51.436;-2.518;2023-04-15T02:04:57;5.90;;;2.78;;
48859;SDS011;34679;51.436;-2.518;2023-04-15T02:07:23;6.88;;;2.83;;
48859;SDS011;34679;51.436;-2.518;2023-04-15T02:09:49;6.85;;;3.30;;
48859;SDS011;34679;51.436;-2.518;2023-04-15T02:12:15;7.03;;;2.60;;
48859;SDS011;34679;51.436;-2.518;2023-04-15T02:14:40;8.10;;;2.95;;
48859;SDS011;34679;51.436;-2.518;2023-04-15T02:17:06;7.28;;;2.47;;
48859;SDS011;34679;51.436;-2.518;2023-04-15T02:19:35;4.15;;;2.65;;
48859;SDS011;34679;51.436;-2.518;2023-04-15T02:22:01;4.00;;;2.72;;
48859;SDS011;34679;51.436;-2.518;2023-04-15T02:24:27;2.95;;;2.13;;
48859;SDS011;34679;51.436;-2.518;2023-04-15T02:26:54;3.88;;;2.60;;
48859;SDS011;34679;51.436;-2.518;2023-04-15T02:29:21;2.70;;;1.95;;
48859;SDS011;34679;51.436;-2.518;2023-04-15T02:31:47;8.50;;;2.03;;
48859;SDS011;34679;51.436;-2.518;2023-04-15T02:34:13;5.32;;;2.10;;
48859;SDS011;34679;51.436;-2.518;2023-04-15T02:36:39;4.07;;;2.00;;
48859;SDS011;34679;51.436;-2.518;2023-04-15T02:39:05;6.95;;;1.92;;
48859;SDS011;34679;51.436;-2.518;2023-04-15T02:41:31;6.50;;;2.53;;
48859;SDS011;34679;51.436;-2.518;2023-04-15T02:43:57;4.00;;;2.20;;
48859;SDS011;34679;51.436;-2.518;2023-04-15T02:46:22;7.50;;;2.60;;
48859;SDS011;34679;51.436;-2.518;2023-04-15T02:48:48;4.95;;;2.10;;
48859;SDS011;34679;51.436;-2.518;2023-04-15T02:51:15;3.50;;;1.88;;
48859;SDS011;34679;51.436;-2.518;2023-04-15T02:53:45;3.10;;;2.42;;
48859;SDS011;34679;51.436;-2.518;2023-04-15T02:56:14;4.03;;;2.22;;
48859;SDS011;34679;51.436;-2.518;2023-04-15T02:58:41;8.68;;;2.40;;
48859;SDS011;34679;51.436;-2.518;2023-04-15T03:01:08;4.68;;;3.70;;
48859;SDS011;34679;51.436;-2.518;2023-04-15T03:03:34;5.78;;;2.85;;
48859;SDS011;34679;51.436;-2.518;2023-04-15T03:06:00;6.85;;;2.50;;
48859;SDS011;34679;51.436;-2.518;2023-04-15T03:08:26;12.13;;;3.03;;
48859;SDS011;34679;51.436;-2.518;2023-04-15T03:10:52;3.85;;;2.22;;
48859;SDS011;34679;51.436;-2.518;2023-04-15T03:13:18;5.80;;;2.35;;
48859;SDS011;34679;51.436;-2.518;2023-04-15T03:15:45;5.82;;;2.58;;
48859;SDS011;34679;51.436;-2.518;2023-04-15T03:18:12;6.65;;;2.60;;
48859;SDS011;34679;51.436;-2.518;2023-04-15T03:20:37;6.20;;;2.95;;
48859;SDS011;34679;51.436;-2.518;2023-04-15T03:23:03;8.80;;;3.60;;
48859;SDS011;34679;51.436;-2.518;2023-04-15T03:25:29;4.50;;;3.15;;
48859;SDS011;34679;51.436;-2.518;2023-04-15T03:27:55;9.90;;;3.40;;
48859;SDS011;34679;51.436;-2.518;2023-04-15T03:30:20;8.18;;;3.35;;
48859;SDS011;34679;51.436;-2.518;2023-04-15T03:32:46;6.05;;;3.13;;
48859;SDS011;34679;51.436;-2.518;2023-04-15T03:35:12;8.07;;;2.50;;
48859;SDS011;34679;51.436;-2.518;2023-04-15T03:37:37;7.30;;;2.80;;
48859;SDS011;34679;51.436;-2.518;2023-04-15T03:40:03;9.70;;;3.25;;
48859;SDS011;34679;51.436;-2.518;2023-04-15T03:42:29;11.43;;;3.60;;
48859;SDS011;34679;51.436;-2.518;2023-04-15T03:44:55;10.00;;;4.63;;
48859;SDS011;34679;51.436;-2.518;2023-04-15T03:47:21;6.57;;;3.30;;
48859;SDS011;34679;51.436;-2.518;2023-04-15T03:49:46;7.50;;;2.83;;
48859;SDS011;34679;51.436;-2.518;2023-04-15T03:52:12;6.10;;;2.80;;
48859;SDS011;34679;51.436;-2.518;2023-04-15T03:54:38;5.40;;;3.20;;
48859;SDS011;34679;51.436;-2.518;2023-04-15T03:57:03;5.03;;;2.90;;
48859;SDS011;34679;51.436;-2.518;2023-04-15T03:59:29;8.10;;;3.05;;
48859;SDS011;34679;51.436;-2.518;2023-04-15T04:01:55;5.75;;;2.95;;
48859;SDS011;34679;51.436;-2.518;2023-04-15T04:04:21;4.38;;;2.92;;
48859;SDS011;34679;51.436;-2.518;2023-04-15T04:06:46;2.90;;;2.50;;
48859;SDS011;34679;51.436;-2.518;2023-04-15T04:09:12;4.78;;;2.53;;
48859;SDS011;34679;51.436;-2.518;2023-04-15T04:11:38;4.25;;;2.75;;
48859;SDS011;34679;51.436;-2.518;2023-04-15T04:14:03;6.50;;;3.17;;
48859;SDS011;34679;51.436;-2.518;2023-04-15T04:16:29;4.75;;;3.10;;
48859;SDS011;34679;51.436;-2.518;2023-04-15T04:18:55;3.47;;;2.67;;
48859;SDS011;34679;51.436;-2.518;2023-04-15T04:21:20;3.45;;;2.53;;
48859;SDS011;34679;51.436;-2.518;2023-04-15T04:23:46;4.45;;;3.65;;
48859;SDS011;34679;51.436;-2.518;2023-04-15T04:26:12;7.10;;;3.80;;
48859;SDS011;34679;51.436;-2.518;2023-04-15T04:28:38;4.53;;;3.55;;
48859;SDS011;34679;51.436;-2.518;2023-04-15T04:31:05;8.65;;;4.35;;
48859;SDS011;34679;51.436;-2.518;2023-04-15T04:33:31;5.65;;;3.97;;
48859;SDS011;34679;51.436;-2.518;2023-04-15T04:35:57;6.65;;;4.60;;
48859;SDS011;34679;51.436;-2.518;2023-04-15T04:38:23;9.32;;;4.68;;
48859;SDS011;34679;51.436;-2.518;2023-04-15T04:40:49;7.03;;;4.05;;
48859;SDS011;34679;51.436;-2.518;2023-04-15T04:43:14;8.45;;;4.50;;
48859;SDS011;34679;51.436;-2.518;2023-04-15T04:45:40;8.90;;;4.53;;
48859;SDS011;34679;51.436;-2.518;2023-04-15T04:48:06;9.05;;;5.25;;
48859;SDS011;34679;51.436;-2.518;2023-04-15T04:50:33;8.77;;;5.25;;
48859;SDS011;34679;51.436;-2.518;2023-04-15T04:53:00;7.95;;;6.15;;
48859;SDS011;34679;51.436;-2.518;2023-04-15T04:55:26;14.10;;;6.10;;
48859;SDS011;34679;51.436;-2.518;2023-04-15T04:57:51;9.98;;;4.95;;
48859;SDS011;34679;51.436;-2.518;2023-04-15T05:00:17;6.85;;;5.82;;
48859;SDS011;34679;51.436;-2.518;2023-04-15T05:02:43;7.28;;;5.85;;
48859;SDS011;34679;51.436;-2.518;2023-04-15T05:05:09;6.90;;;5.55;;
48859;SDS011;34679;51.436;-2.518;2023-04-15T05:07:36;9.85;;;6.00;;
48859;SDS011;34679;51.436;-2.518;2023-04-15T05:10:02;8.98;;;5.47;;
48859;SDS011;34679;51.436;-2.518;2023-04-15T05:12:28;8.52;;;6.00;;
48859;SDS011;34679;51.436;-2.518;2023-04-15T05:14:54;6.93;;;5.95;;
48859;SDS011;34679;51.436;-2.518;2023-04-15T05:17:20;9.52;;;5.72;;
48859;SDS011;34679;51.436;-2.518;2023-04-15T05:19:46;8.13;;;5.55;;
48859;SDS011;34679;51.436;-2.518;2023-04-15T05:22:11;6.93;;;5.55;;
48859;SDS011;34679;51.436;-2.518;2023-04-15T05:24:37;13.73;;;6.30;;
48859;SDS011;34679;51.436;-2.518;2023-04-15T05:27:03;10.32;;;5.03;;
48859;SDS011;34679;51.436;-2.518;2023-04-15T05:29:28;10.05;;;6.00;;
48859;SDS011;34679;51.436;-2.518;2023-04-15T05:31:54;6.10;;;5.53;;
48859;SDS011;34679;51.436;-2.518;2023-04-15T05:34:20;11.02;;;5.47;;
48859;SDS011;34679;51.436;-2.518;2023-04-15T05:36:46;8.23;;;5.90;;
48859;SDS011;34679;51.436;-2.518;2023-04-15T05:39:12;9.63;;;6.05;;
48859;SDS011;34679;51.436;-2.518;2023-04-15T05:41:38;9.43;;;6.85;;
48859;SDS011;34679;51.436;-2.518;2023-04-15T05:44:04;11.05;;;6.97;;
48859;SDS011;34679;51.436;-2.518;2023-04-15T05:46:30;12.75;;;6.70;;
48859;SDS011;34679;51.436;-2.518;2023-04-15T05:48:55;9.27;;;6.22;;
48859;SDS011;34679;51.436;-2.518;2023-04-15T05:51:21;6.45;;;5.65;;
48859;SDS011;34679;51.436;-2.518;2023-04-15T05:53:47;7.88;;;5.63;;
48859;SDS011;34679;51.436;-2.518;2023-04-15T05:56:12;12.93;;;5.68;;
48859;SDS011;34679;51.436;-2.518;2023-04-15T05:58:38;11.85;;;5.57;;
48859;SDS011;34679;51.436;-2.518;2023-04-15T06:01:04;9.05;;;4.68;;
48859;SDS011;34679;51.436;-2.518;2023-04-15T06:03:30;6.95;;;4.80;;
48859;SDS011;34679;51.436;-2.518;2023-04-15T06:05:56;7.78;;;4.80;;
48859;SDS011;34679;51.436;-2.518;2023-04-15T06:08:21;7.10;;;4.13;;
48859;SDS011;34679;51.436;-2.518;2023-04-15T06:10:47;8.52;;;3.58;;
48859;SDS011;34679;51.436;-2.518;2023-04-15T06:13:13;5.50;;;3.05;;
48859;SDS011;34679;51.436;-2.518;2023-04-15T06:15:38;3.22;;;2.90;;
48859;SDS011;34679;51.436;-2.518;2023-04-15T06:18:04;4.72;;;3.17;;
48859;SDS011;34679;51.436;-2.518;2023-04-15T06:20:30;4.25;;;3.05;;
48859;SDS011;34679;51.436;-2.518;2023-04-15T06:22:56;6.30;;;3.75;;
48859;SDS011;34679;51.436;-2.518;2023-04-15T06:25:21;6.97;;;4.25;;
48859;SDS011;34679;51.436;-2.518;2023-04-15T06:27:48;14.27;;;5.60;;
48859;SDS011;34679;51.436;-2.518;2023-04-15T06:30:13;15.63;;;7.03;;
48859;SDS011;34679;51.436;-2.518;2023-04-15T06:32:39;15.82;;;7.35;;
48859;SDS011;34679;51.436;-2.518;2023-04-15T06:35:05;11.07;;;6.53;;
48859;SDS011;34679;51.436;-2.518;2023-04-15T06:37:30;11.35;;;6.00;;
48859;SDS011;34679;51.436;-2.518;2023-04-15T06:39:56;11.88;;;7.45;;
48859;SDS011;34679;51.436;-2.518;2023-04-15T06:42:22;13.45;;;8.20;;
48859;SDS011;34679;51.436;-2.518;2023-04-15T06:44:48;22.02;;;10.48;;
48859;SDS011;34679;51.436;-2.518;2023-04-15T06:47:14;17.45;;;10.40;;
48859;SDS011;34679;51.436;-2.518;2023-04-15T06:49:40;18.48;;;8.43;;
48859;SDS011;34679;51.436;-2.518;2023-04-15T06:52:07;11.57;;;5.65;;
48859;SDS011;34679;51.436;-2.518;2023-04-15T06:54:34;6.15;;;4.35;;
48859;SDS011;34679;51.436;-2.518;2023-04-15T06:56:59;12.20;;;6.55;;
48859;SDS011;34679;51.436;-2.518;2023-04-15T06:59:25;9.95;;;6.57;;
48859;SDS011;34679;51.436;-2.518;2023-04-15T07:01:51;7.20;;;4.00;;
48859;SDS011;34679;51.436;-2.518;2023-04-15T07:04:17;4.32;;;2.38;;
48859;SDS011;34679;51.436;-2.518;2023-04-15T07:06:42;4.97;;;1.65;;
48859;SDS011;34679;51.436;-2.518;2023-04-15T07:09:08;7.05;;;2.47;;
48859;SDS011;34679;51.436;-2.518;2023-04-15T07:11:34;8.48;;;1.92;;
48859;SDS011;34679;51.436;-2.518;2023-04-15T07:14:00;3.97;;;2.25;;
48859;SDS011;34679;51.436;-2.518;2023-04-15T07:16:26;7.25;;;1.92;;
48859;SDS011;34679;51.436;-2.518;2023-04-15T07:18:53;6.43;;;2.10;;
48859;SDS011;34679;51.436;-2.518;2023-04-15T07:21:19;5.32;;;1.90;;
48859;SDS011;34679;51.436;-2.518;2023-04-15T07:23:45;8.60;;;2.05;;
48859;SDS011;34679;51.436;-2.518;2023-04-15T07:26:11;5.45;;;1.80;;
48859;SDS011;34679;51.436;-2.518;2023-04-15T07:28:37;3.97;;;1.60;;
48859;SDS011;34679;51.436;-2.518;2023-04-15T07:31:02;2.92;;;1.50;;
48859;SDS011;34679;51.436;-2.518;2023-04-15T07:33:28;3.33;;;1.33;;
48859;SDS011;34679;51.436;-2.518;2023-04-15T07:35:54;3.00;;;1.70;;
48859;SDS011;34679;51.436;-2.518;2023-04-15T07:38:20;4.28;;;1.50;;
48859;SDS011;34679;51.436;-2.518;2023-04-15T07:40:46;3.63;;;1.55;;
48859;SDS011;34679;51.436;-2.518;2023-04-15T07:43:12;4.30;;;1.67;;
48859;SDS011;34679;51.436;-2.518;2023-04-15T07:45:38;5.20;;;1.75;;
48859;SDS011;34679;51.436;-2.518;2023-04-15T07:48:04;4.28;;;1.05;;
48859;SDS011;34679;51.436;-2.518;2023-04-15T07:50:30;5.65;;;1.52;;
48859;SDS011;34679;51.436;-2.518;2023-04-15T07:52:56;2.05;;;1.17;;
48859;SDS011;34679;51.436;-2.518;2023-04-15T07:55:22;3.65;;;1.40;;
48859;SDS011;34679;51.436;-2.518;2023-04-15T07:57:48;2.55;;;1.60;;
48859;SDS011;34679;51.436;-2.518;2023-04-15T08:00:14;3.65;;;1.38;;
48859;SDS011;34679;51.436;-2.518;2023-04-15T08:02:43;5.05;;;1.52;;
48859;SDS011;34679;51.436;-2.518;2023-04-15T08:05:10;2.50;;;1.73;;
48859;SDS011;34679;51.436;-2.518;2023-04-15T08:07:37;3.88;;;1.60;;
48859;SDS011;34679;51.436;-2.518;2023-04-15T08:10:03;4.93;;;1.70;;
48859;SDS011;34679;51.436;-2.518;2023-04-15T08:12:29;3.38;;;1.33;;
48859;SDS011;34679;51.436;-2.518;2023-04-15T08:14:55;3.88;;;1.38;;
48859;SDS011;34679;51.436;-2.518;2023-04-15T08:17:21;2.15;;;1.40;;
48859;SDS011;34679;51.436;-2.518;2023-04-15T08:19:47;5.22;;;1.95;;
48859;SDS011;34679;51.436;-2.518;2023-04-15T08:22:13;4.03;;;1.60;;
48859;SDS011;34679;51.436;-2.518;2023-04-15T08:24:39;2.95;;;1.40;;
48859;SDS011;34679;51.436;-2.518;2023-04-15T08:27:05;4.07;;;1.65;;
48859;SDS011;34679;51.436;-2.518;2023-04-15T08:29:32;6.57;;;1.60;;
48859;SDS011;34679;51.436;-2.518;2023-04-15T08:31:58;5.45;;;1.85;;
48859;SDS011;34679;51.436;-2.518;2023-04-15T08:34:28;4.78;;;1.70;;
48859;SDS011;34679;51.436;-2.518;2023-04-15T08:36:54;4.45;;;2.17;;
48859;SDS011;34679;51.436;-2.518;2023-04-15T08:39:20;5.85;;;2.15;;
48859;SDS011;34679;51.436;-2.518;2023-04-15T08:41:59;5.47;;;1.75;;
48859;SDS011;34679;51.436;-2.518;2023-04-15T08:44:27;5.68;;;1.92;;
48859;SDS011;34679;51.436;-2.518;2023-04-15T08:47:00;5.55;;;1.73;;
48859;SDS011;34679;51.436;-2.518;2023-04-15T08:49:27;9.80;;;2.22;;
48859;SDS011;34679;51.436;-2.518;2023-04-15T08:51:53;4.13;;;1.73;;
48859;SDS011;34679;51.436;-2.518;2023-04-15T08:54:22;4.03;;;1.70;;
48859;SDS011;34679;51.436;-2.518;2023-04-15T08:56:48;5.00;;;2.00;;
48859;SDS011;34679;51.436;-2.518;2023-04-15T08:59:14;6.43;;;1.70;;
48859;SDS011;34679;51.436;-2.518;2023-04-15T09:01:40;4.72;;;1.40;;
48859;SDS011;34679;51.436;-2.518;2023-04-15T09:04:06;3.38;;;1.50;;
48859;SDS011;34679;51.436;-2.518;2023-04-15T09:06:32;3.33;;;1.60;;
48859;SDS011;34679;51.436;-2.518;2023-04-15T09:08:58;4.72;;;1.50;;
48859;SDS011;34679;51.436;-2.518;2023-04-15T09:11:24;6.43;;;1.58;;
48859;SDS011;34679;51.436;-2.518;2023-04-15T09:13:51;3.03;;;1.30;;
48859;SDS011;34679;51.436;-2.518;2023-04-15T09:16:16;5.85;;;1.67;;
48859;SDS011;34679;51.436;-2.518;2023-04-15T09:18:44;5.80;;;1.92;;
48859;SDS011;34679;51.436;-2.518;2023-04-15T09:21:13;3.60;;;1.50;;
48859;SDS011;34679;51.436;-2.518;2023-04-15T09:23:52;6.32;;;1.45;;
48859;SDS011;34679;51.436;-2.518;2023-04-15T09:26:29;8.18;;;1.77;;
48859;SDS011;34679;51.436;-2.518;2023-04-15T09:29:09;5.30;;;1.48;;
48859;SDS011;34679;51.436;-2.518;2023-04-15T09:31:38;5.70;;;1.50;;
48859;SDS011;34679;51.436;-2.518;2023-04-15T09:34:05;4.15;;;1.52;;
48859;SDS011;34679;51.436;-2.518;2023-04-15T09:39:14;5.72;;;1.88;;
48859;SDS011;34679;51.436;-2.518;2023-04-15T09:41:40;7.57;;;1.70;;
48859;SDS011;34679;51.436;-2.518;2023-04-15T09:44:05;6.50;;;1.50;;
48859;SDS011;34679;51.436;-2.518;2023-04-15T09:46:41;5.68;;;1.38;;
48859;SDS011;34679;51.436;-2.518;2023-04-15T09:49:08;2.55;;;1.60;;
48859;SDS011;34679;51.436;-2.518;2023-04-15T09:51:35;4.95;;;2.08;;
48859;SDS011;34679;51.436;-2.518;2023-04-15T09:54:01;2.67;;;1.65;;
48859;SDS011;34679;51.436;-2.518;2023-04-15T09:56:33;4.68;;;1.50;;
48859;SDS011;34679;51.436;-2.518;2023-04-15T09:59:05;5.65;;;1.63;;
48859;SDS011;34679;51.436;-2.518;2023-04-15T10:01:32;6.45;;;2.38;;
48859;SDS011;34679;51.436;-2.518;2023-04-15T10:03:57;3.95;;;1.50;;
48859;SDS011;34679;51.436;-2.518;2023-04-15T10:06:29;14.95;;;2.72;;
48859;SDS011;34679;51.436;-2.518;2023-04-15T10:08:58;2.38;;;1.45;;
48859;SDS011;34679;51.436;-2.518;2023-04-15T10:11:27;2.97;;;1.38;;
48859;SDS011;34679;51.436;-2.518;2023-04-15T10:13:54;7.20;;;1.58;;
48859;SDS011;34679;51.436;-2.518;2023-04-15T10:16:21;3.42;;;1.85;;
48859;SDS011;34679;51.436;-2.518;2023-04-15T10:18:53;4.25;;;1.63;;
48859;SDS011;34679;51.436;-2.518;2023-04-15T10:21:20;5.47;;;1.65;;
48859;SDS011;34679;51.436;-2.518;2023-04-15T10:23:47;4.60;;;1.88;;
48859;SDS011;34679;51.436;-2.518;2023-04-15T10:26:14;3.38;;;1.65;;
48859;SDS011;34679;51.436;-2.518;2023-04-15T10:28:41;2.85;;;1.30;;
48859;SDS011;34679;51.436;-2.518;2023-04-15T10:31:07;8.50;;;1.70;;
48859;SDS011;34679;51.436;-2.518;2023-04-15T10:33:38;5.57;;;1.58;;
48859;SDS011;34679;51.436;-2.518;2023-04-15T10:36:06;5.57;;;1.70;;
48859;SDS011;34679;51.436;-2.518;2023-04-15T10:46:36;5.82;;;1.77;;
48859;SDS011;34679;51.436;-2.518;2023-04-15T10:49:13;6.15;;;1.67;;
48859;SDS011;34679;51.436;-2.518;2023-04-15T10:51:42;7.55;;;1.70;;
48859;SDS011;34679;51.436;-2.518;2023-04-15T10:54:13;3.22;;;1.60;;
48859;SDS011;34679;51.436;-2.518;2023-04-15T10:56:40;4.60;;;1.90;;
48859;SDS011;34679;51.436;-2.518;2023-04-15T10:59:08;4.65;;;2.00;;
48859;SDS011;34679;51.436;-2.518;2023-04-15T11:04:56;4.00;;;2.50;;
48859;SDS011;34679;51.436;-2.518;2023-04-15T11:10:01;2.70;;;1.67;;
48859;SDS011;34679;51.436;-2.518;2023-04-15T11:12:33;8.55;;;2.30;;
48859;SDS011;34679;51.436;-2.518;2023-04-15T11:15:23;6.35;;;1.85;;
48859;SDS011;34679;51.436;-2.518;2023-04-15T11:20:35;4.30;;;2.33;;
48859;SDS011;34679;51.436;-2.518;2023-04-15T11:23:02;4.47;;;2.15;;
48859;SDS011;34679;51.436;-2.518;2023-04-15T11:25:29;4.15;;;1.90;;
48859;SDS011;34679;51.436;-2.518;2023-04-15T11:27:57;6.03;;;2.63;;
48859;SDS011;34679;51.436;-2.518;2023-04-15T11:30:28;6.20;;;2.55;;
48859;SDS011;34679;51.436;-2.518;2023-04-15T11:33:02;2.45;;;2.13;;
48859;SDS011;34679;51.436;-2.518;2023-04-15T11:35:29;4.78;;;2.20;;
48859;SDS011;34679;51.436;-2.518;2023-04-15T11:37:55;4.93;;;2.08;;
48859;SDS011;34679;51.436;-2.518;2023-04-15T11:40:22;3.80;;;2.00;;
48859;SDS011;34679;51.436;-2.518;2023-04-15T11:43:07;4.97;;;2.13;;
48859;SDS011;34679;51.436;-2.518;2023-04-15T11:45:36;2.90;;;2.10;;
48859;SDS011;34679;51.436;-2.518;2023-04-15T11:48:12;3.25;;;2.35;;
48859;SDS011;34679;51.436;-2.518;2023-04-15T11:50:38;2.88;;;2.33;;
48859;SDS011;34679;51.436;-2.518;2023-04-15T11:53:05;4.60;;;1.88;;
48859;SDS011;34679;51.436;-2.518;2023-04-15T12:00:38;2.88;;;2.05;;
48859;SDS011;34679;51.436;-2.518;2023-04-15T12:03:15;4.05;;;2.60;;
48859;SDS011;34679;51.436;-2.518;2023-04-15T12:14:04;3.65;;;2.28;;
48859;SDS011;34679;51.436;-2.518;2023-04-15T12:16:40;3.75;;;1.80;;
48859;SDS011;34679;51.436;-2.518;2023-04-15T12:19:13;3.88;;;1.75;;
48859;SDS011;34679;51.436;-2.518;2023-04-15T12:21:41;3.85;;;2.05;;
48859;SDS011;34679;51.436;-2.518;2023-04-15T12:24:10;4.30;;;1.40;;
48859;SDS011;34679;51.436;-2.518;2023-04-15T12:26:50;3.85;;;1.80;;
48859;SDS011;34679;51.436;-2.518;2023-04-15T12:29:17;5.30;;;2.00;;
48859;SDS011;34679;51.436;-2.518;2023-04-15T12:31:47;6.22;;;1.45;;
48859;SDS011;34679;51.436;-2.518;2023-04-15T12:34:15;6.93;;;1.92;;
48859;SDS011;34679;51.436;-2.518;2023-04-15T12:36:42;3.17;;;1.90;;
48859;SDS011;34679;51.436;-2.518;2023-04-15T12:39:07;2.83;;;1.83;;
48859;SDS011;34679;51.436;-2.518;2023-04-15T12:41:33;1.55;;;1.33;;
48859;SDS011;34679;51.436;-2.518;2023-04-15T12:43:59;4.25;;;1.42;;
48859;SDS011;34679;51.436;-2.518;2023-04-15T12:46:25;2.45;;;1.52;;
48859;SDS011;34679;51.436;-2.518;2023-04-15T12:48:51;1.83;;;1.60;;
48859;SDS011;34679;51.436;-2.518;2023-04-15T12:51:17;1.77;;;1.30;;
48859;SDS011;34679;51.436;-2.518;2023-04-15T12:53:45;2.78;;;1.33;;
48859;SDS011;34679;51.436;-2.518;2023-04-15T12:56:12;4.10;;;1.42;;
48859;SDS011;34679;51.436;-2.518;2023-04-15T12:58:38;2.95;;;1.30;;
48859;SDS011;34679;51.436;-2.518;2023-04-15T13:01:03;3.05;;;1.73;;
48859;SDS011;34679;51.436;-2.518;2023-04-15T13:03:30;1.50;;;1.40;;
48859;SDS011;34679;51.436;-2.518;2023-04-15T13:05:56;5.13;;;1.50;;
48859;SDS011;34679;51.436;-2.518;2023-04-15T13:08:22;2.90;;;1.63;;
48859;SDS011;34679;51.436;-2.518;2023-04-15T13:10:47;2.40;;;1.40;;
48859;SDS011;34679;51.436;-2.518;2023-04-15T13:13:13;3.42;;;1.42;;
48859;SDS011;34679;51.436;-2.518;2023-04-15T13:15:39;1.58;;;1.33;;
48859;SDS011;34679;51.436;-2.518;2023-04-15T13:18:06;6.65;;;1.60;;
48859;SDS011;34679;51.436;-2.518;2023-04-15T13:20:31;2.30;;;1.40;;
48859;SDS011;34679;51.436;-2.518;2023-04-15T13:22:57;1.60;;;0.93;;
48859;SDS011;34679;51.436;-2.518;2023-04-15T13:25:23;5.13;;;1.35;;
48859;SDS011;34679;51.436;-2.518;2023-04-15T13:27:49;5.35;;;1.45;;
48859;SDS011;34679;51.436;-2.518;2023-04-15T13:30:15;1.95;;;1.55;;
48859;SDS011;34679;51.436;-2.518;2023-04-15T13:32:41;5.05;;;1.63;;
48859;SDS011;34679;51.436;-2.518;2023-04-15T13:35:07;3.22;;;1.48;;
48859;SDS011;34679;51.436;-2.518;2023-04-15T13:37:32;2.47;;;1.13;;
48859;SDS011;34679;51.436;-2.518;2023-04-15T13:39:58;4.72;;;1.10;;
48859;SDS011;34679;51.436;-2.518;2023-04-15T13:42:24;3.40;;;1.30;;
48859;SDS011;34679;51.436;-2.518;2023-04-15T13:44:51;1.23;;;1.10;;
48859;SDS011;34679;51.436;-2.518;2023-04-15T13:47:20;3.35;;;1.30;;
48859;SDS011;34679;51.436;-2.518;2023-04-15T13:49:46;3.85;;;1.40;;
48859;SDS011;34679;51.436;-2.518;2023-04-15T13:52:11;2.05;;;1.30;;
48859;SDS011;34679;51.436;-2.518;2023-04-15T13:54:37;4.35;;;1.70;;
48859;SDS011;34679;51.436;-2.518;2023-04-15T13:57:04;1.42;;;1.33;;
48859;SDS011;34679;51.436;-2.518;2023-04-15T13:59:30;1.40;;;1.30;;
48859;SDS011;34679;51.436;-2.518;2023-04-15T14:01:57;4.25;;;1.52;;
48859;SDS011;34679;51.436;-2.518;2023-04-15T14:04:23;3.35;;;1.38;;
48859;SDS011;34679;51.436;-2.518;2023-04-15T14:06:48;3.42;;;1.38;;
48859;SDS011;34679;51.436;-2.518;2023-04-15T14:09:14;1.85;;;1.58;;
48859;SDS011;34679;51.436;-2.518;2023-04-15T14:11:40;2.05;;;1.35;;
48859;SDS011;34679;51.436;-2.518;2023-04-15T14:14:06;4.65;;;1.33;;
48859;SDS011;34679;51.436;-2.518;2023-04-15T14:16:32;5.30;;;1.38;;
48859;SDS011;34679;51.436;-2.518;2023-04-15T14:18:58;1.95;;;1.15;;
48859;SDS011;34679;51.436;-2.518;2023-04-15T14:21:24;3.28;;;1.60;;
48859;SDS011;34679;51.436;-2.518;2023-04-15T14:23:53;2.92;;;1.50;;
48859;SDS011;34679;51.436;-2.518;2023-04-15T14:26:19;1.23;;;1.02;;
48859;SDS011;34679;51.436;-2.518;2023-04-15T14:28:45;3.97;;;1.30;;
48859;SDS011;34679;51.436;-2.518;2023-04-15T14:31:12;2.03;;;0.90;;
48859;SDS011;34679;51.436;-2.518;2023-04-15T14:33:38;4.47;;;1.77;;
48859;SDS011;34679;51.436;-2.518;2023-04-15T14:36:04;2.78;;;1.05;;
48859;SDS011;34679;51.436;-2.518;2023-04-15T14:38:30;1.98;;;0.90;;
48859;SDS011;34679;51.436;-2.518;2023-04-15T14:41:02;2.25;;;1.00;;
48859;SDS011;34679;51.436;-2.518;2023-04-15T14:43:28;3.50;;;1.10;;
48859;SDS011;34679;51.436;-2.518;2023-04-15T14:45:54;1.38;;;1.20;;
48859;SDS011;34679;51.436;-2.518;2023-04-15T14:48:19;4.53;;;1.80;;
48859;SDS011;34679;51.436;-2.518;2023-04-15T14:50:45;4.03;;;1.42;;
48859;SDS011;34679;51.436;-2.518;2023-04-15T14:53:11;2.95;;;1.50;;
48859;SDS011;34679;51.436;-2.518;2023-04-15T14:55:37;7.50;;;3.15;;
48859;SDS011;34679;51.436;-2.518;2023-04-15T14:58:02;2.20;;;1.48;;
48859;SDS011;34679;51.436;-2.518;2023-04-15T15:00:28;1.85;;;1.30;;
48859;SDS011;34679;51.436;-2.518;2023-04-15T15:02:54;2.72;;;1.27;;